Time;durP1;ratioP1;P1;durP2;ratioP2;P2;SDS_P1;SDS_P2;PMS_P1;PMS_P2;Temp;Humidity;BMP_temperature;BMP_pressure;BME280_temperature;BME280_humidity;BME280_pressure;Samples;Min_cycle;Max_cycle;Signal;HPM_P1;HPM_P2
2022/09/01 00:01:49;;;;;;;1.83;1.00;;;16.90;99.90;;;;;;5050652;28;20207;-72
2022/09/01 00:04:19;;;;;;;1.40;0.82;;;16.90;99.90;;;;;;5050296;28;20303;-71
2022/09/01 00:06:46;;;;;;;2.17;1.13;;;16.90;99.90;;;;;;5050618;28;20216;-72
2022/09/01 00:09:15;;;;;;;1.38;1.10;;;16.90;99.90;;;;;;5050549;28;20204;-71
2022/09/01 00:11:44;;;;;;;4.50;1.17;;;16.90;99.90;;;;;;5049798;28;20210;-71
2022/09/01 00:14:10;;;;;;;1.77;0.95;;;16.90;99.90;;;;;;5050098;28;20718;-73
2022/09/01 00:16:36;;;;;;;1.45;0.95;;;16.90;99.90;;;;;;5050200;28;20341;-71
2022/09/01 00:19:03;;;;;;;1.70;0.80;;;16.90;99.90;;;;;;5049842;28;20298;-72
2022/09/01 00:21:35;;;;;;;1.63;1.00;;;16.90;99.90;;;;;;5050273;28;20179;-71
2022/09/01 00:24:01;;;;;;;2.40;0.85;;;16.90;99.90;;;;;;5049763;28;20172;-70
2022/09/01 00:26:27;;;;;;;1.80;1.05;;;16.90;99.90;;;;;;5049414;28;20233;-71
2022/09/01 00:28:53;;;;;;;2.90;1.23;;;16.90;99.90;;;;;;5050402;28;20286;-70
2022/09/01 00:31:19;;;;;;;1.00;0.80;;;16.90;99.90;;;;;;5049662;28;20269;-71
2022/09/01 00:33:46;;;;;;;2.17;0.80;;;16.90;99.90;;;;;;5050624;28;20222;-71
2022/09/01 00:36:12;;;;;;;2.85;1.13;;;16.80;99.90;;;;;;5051407;28;20183;-71
2022/09/01 00:38:38;;;;;;;2.53;1.17;;;16.80;99.90;;;;;;5051260;28;20218;-69
2022/09/01 00:41:06;;;;;;;1.63;0.82;;;16.80;99.90;;;;;;5050478;28;20239;-72
2022/09/01 00:43:45;;;;;;;1.98;0.90;;;16.70;99.90;;;;;;5049943;28;20449;-70
2022/09/01 00:46:15;;;;;;;2.17;1.00;;;16.60;99.90;;;;;;5050218;28;20218;-70
2022/09/01 00:48:41;;;;;;;1.85;0.98;;;16.60;99.90;;;;;;5051484;28;20206;-70
2022/09/01 00:51:09;;;;;;;1.33;0.70;;;16.60;99.90;;;;;;5051029;28;20192;-71
2022/09/01 00:53:37;;;;;;;4.75;1.10;;;16.50;99.90;;;;;;5051397;28;20230;-70
2022/09/01 00:56:05;;;;;;;2.30;0.77;;;16.50;99.90;;;;;;5049309;28;20200;-70
2022/09/01 00:58:33;;;;;;;1.52;0.95;;;16.50;99.90;;;;;;5048205;28;20294;-71
2022/09/01 01:00:58;;;;;;;1.60;0.60;;;16.60;99.90;;;;;;5048456;28;20223;-70
2022/09/01 01:03:24;;;;;;;2.60;0.80;;;16.60;99.90;;;;;;5048517;28;20176;-70
2022/09/01 01:05:54;;;;;;;1.70;0.88;;;16.50;99.90;;;;;;5050142;28;20230;-71
2022/09/01 01:08:33;;;;;;;1.27;0.80;;;16.50;99.90;;;;;;5047271;28;20207;-70
2022/09/01 01:11:01;;;;;;;1.52;0.90;;;16.60;99.90;;;;;;5049435;28;20226;-70
2022/09/01 01:13:30;;;;;;;1.45;0.88;;;16.50;99.90;;;;;;5049592;28;20209;-71
2022/09/01 01:15:58;;;;;;;2.00;0.93;;;16.40;99.90;;;;;;5048681;28;20223;-71
2022/09/01 01:18:24;;;;;;;0.60;0.60;;;16.40;99.90;;;;;;5049593;28;20172;-70
2022/09/01 01:24:25;;;;;;;1.75;0.90;;;16.40;99.90;;;;;;5053383;28;20258;-70
2022/09/01 01:26:52;;;;;;;0.82;0.70;;;16.50;99.90;;;;;;5052308;28;20234;-71
2022/09/01 01:29:18;;;;;;;1.42;1.02;;;16.40;99.90;;;;;;5054312;28;20594;-71
2022/09/01 01:31:48;;;;;;;1.30;0.90;;;16.40;99.90;;;;;;5056323;28;20208;-70
2022/09/01 01:34:17;;;;;;;3.20;1.17;;;16.40;99.90;;;;;;5054501;28;20267;-69
2022/09/01 01:36:42;;;;;;;2.20;0.98;;;16.50;99.90;;;;;;5054502;28;20211;-70
2022/09/01 01:39:15;;;;;;;2.10;0.93;;;16.60;99.90;;;;;;5054240;28;20195;-71
2022/09/01 01:41:47;;;;;;;0.95;0.80;;;16.60;99.90;;;;;;5054078;28;20279;-70
2022/09/01 01:44:14;;;;;;;1.42;0.70;;;16.60;99.90;;;;;;5053196;28;20217;-70
2022/09/01 01:46:45;;;;;;;1.75;1.10;;;16.60;99.90;;;;;;5053505;28;20290;-71
2022/09/01 01:49:19;;;;;;;2.25;1.23;;;16.60;99.90;;;;;;5052839;28;20681;-70
2022/09/01 01:51:56;;;;;;;1.15;0.90;;;16.60;99.90;;;;;;5048149;28;20219;-70
2022/09/01 01:54:24;;;;;;;4.00;1.50;;;16.60;99.90;;;;;;5051887;28;20630;-69
2022/09/01 01:56:50;;;;;;;1.90;1.08;;;16.40;99.90;;;;;;5053495;28;20172;-70
2022/09/01 01:59:16;;;;;;;1.83;0.82;;;16.40;99.90;;;;;;5052581;28;20218;-69
2022/09/01 02:01:47;;;;;;;1.50;0.98;;;16.40;99.90;;;;;;5053144;28;20677;-69
2022/09/01 02:04:15;;;;;;;3.33;1.40;;;16.50;99.90;;;;;;5051373;28;20649;-72
2022/09/01 02:06:44;;;;;;;3.33;1.30;;;16.60;99.90;;;;;;5053216;28;20218;-70
2022/09/01 02:09:11;;;;;;;1.65;0.93;;;16.50;99.90;;;;;;5050848;28;20208;-70
2022/09/01 02:11:37;;;;;;;1.23;0.93;;;16.50;99.90;;;;;;5065300;22;20366;-68
2022/09/01 02:14:04;;;;;;;3.30;1.20;;;16.50;99.90;;;;;;5039824;28;20295;-71
2022/09/01 02:16:32;;;;;;;3.50;1.23;;;16.40;99.90;;;;;;5040692;28;20212;-69
2022/09/01 02:18:59;;;;;;;1.27;0.80;;;16.40;99.90;;;;;;5030204;28;20265;-70
2022/09/01 02:21:25;;;;;;;1.40;0.82;;;16.40;99.90;;;;;;5024241;28;20208;-70
2022/09/01 02:23:59;;;;;;;1.83;1.15;;;16.30;99.90;;;;;;5036519;28;20206;-70
2022/09/01 02:26:33;;;;;;;1.83;0.85;;;16.20;99.90;;;;;;5036824;28;20230;-70
2022/09/01 02:29:03;;;;;;;2.00;1.10;;;16.20;99.90;;;;;;5038744;28;20714;-71
2022/09/01 02:31:34;;;;;;;2.97;0.70;;;16.10;99.90;;;;;;5036976;28;20215;-69
2022/09/01 02:34:02;;;;;;;2.38;0.90;;;16.10;99.90;;;;;;5037133;28;20227;-69
2022/09/01 02:36:31;;;;;;;1.95;1.00;;;16.00;99.90;;;;;;5038538;28;20183;-70
2022/09/01 02:38:57;;;;;;;2.38;1.23;;;16.00;99.90;;;;;;5039366;28;20533;-70
2022/09/01 02:41:23;;;;;;;0.95;0.88;;;16.00;99.90;;;;;;5063845;28;20199;-71
2022/09/01 02:43:49;;;;;;;1.92;1.08;;;16.00;99.90;;;;;;5058788;28;20211;-70
2022/09/01 02:46:15;;;;;;;1.90;0.80;;;16.00;99.90;;;;;;5047445;28;20729;-69
2022/09/01 02:48:44;;;;;;;1.27;1.17;;;16.00;99.90;;;;;;5039148;28;20208;-70
2022/09/01 02:51:14;;;;;;;3.88;1.38;;;16.00;99.90;;;;;;5037313;28;20242;-70
2022/09/01 02:53:41;;;;;;;2.10;1.38;;;15.90;99.90;;;;;;5031231;28;20207;-70
2022/09/01 02:56:13;;;;;;;5.13;3.20;;;15.90;99.90;;;;;;5039328;28;20291;-71
2022/09/01 02:58:44;;;;;;;2.28;1.85;;;15.90;99.90;;;;;;5039805;28;20211;-69
2022/09/01 03:01:24;;;;;;;2.53;1.30;;;15.80;99.90;;;;;;5036307;28;20667;-70
2022/09/01 03:03:52;;;;;;;4.88;1.65;;;15.70;99.90;;;;;;5037529;28;20756;-70
2022/09/01 03:06:19;;;;;;;4.00;2.00;;;15.70;99.90;;;;;;5035874;28;20570;-70
2022/09/01 03:08:46;;;;;;;3.38;1.42;;;15.60;99.90;;;;;;5033240;28;20618;-68
2022/09/01 03:11:11;;;;;;;2.95;1.30;;;15.60;99.90;;;;;;5034693;28;20641;-70
2022/09/01 03:13:39;;;;;;;1.58;0.90;;;15.60;99.90;;;;;;5038325;28;20204;-69
2022/09/01 03:16:06;;;;;;;3.08;1.38;;;15.60;99.90;;;;;;5039064;28;20211;-69
2022/09/01 03:18:32;;;;;;;1.75;1.30;;;15.60;99.90;;;;;;5037819;28;20669;-68
2022/09/01 03:20:58;;;;;;;2.78;1.80;;;15.60;99.90;;;;;;5036542;28;20223;-69
2022/09/01 03:23:24;;;;;;;2.60;1.52;;;15.50;99.90;;;;;;5031702;28;20205;-69
2022/09/01 03:25:50;;;;;;;1.25;0.90;;;15.40;99.90;;;;;;5036243;28;20216;-69
2022/09/01 03:28:16;;;;;;;1.85;1.63;;;15.40;99.90;;;;;;5040065;28;20204;-67
2022/09/01 03:30:49;;;;;;;4.78;2.05;;;15.30;99.90;;;;;;5036841;28;20208;-68
2022/09/01 03:33:17;;;;;;;2.65;0.90;;;15.30;99.90;;;;;;5038116;28;20558;-69
2022/09/01 03:35:43;;;;;;;2.63;1.00;;;15.30;99.90;;;;;;5032422;28;20202;-69
2022/09/01 03:38:11;;;;;;;1.80;1.10;;;15.30;99.90;;;;;;5038635;28;20712;-69
2022/09/01 03:40:38;;;;;;;1.50;1.10;;;15.30;99.90;;;;;;5039470;28;20218;-67
2022/09/01 03:43:09;;;;;;;2.67;1.42;;;15.30;99.90;;;;;;5036058;28;20246;-68
2022/09/01 03:45:34;;;;;;;1.83;1.50;;;15.20;99.90;;;;;;5040213;28;20268;-69
2022/09/01 03:48:05;;;;;;;1.65;1.30;;;15.30;99.90;;;;;;5035434;28;20674;-67
2022/09/01 03:50:31;;;;;;;2.35;1.30;;;15.20;99.90;;;;;;5036929;28;20223;-69
2022/09/01 03:52:59;;;;;;;4.30;1.35;;;15.20;99.90;;;;;;5027934;28;20242;-69
2022/09/01 03:55:29;;;;;;;3.55;1.85;;;15.20;99.90;;;;;;5040595;28;20223;-70
2022/09/01 03:57:59;;;;;;;1.40;1.20;;;15.20;99.90;;;;;;5036834;28;20208;-70
2022/09/01 04:00:28;;;;;;;3.38;1.50;;;15.10;99.90;;;;;;5035582;28;20179;-68
2022/09/01 04:02:57;;;;;;;3.17;1.55;;;15.10;99.90;;;;;;5041293;28;20175;-69
2022/09/01 04:05:28;;;;;;;2.28;1.67;;;15.10;99.90;;;;;;5037771;28;20582;-69
2022/09/01 04:08:01;;;;;;;2.90;1.58;;;15.20;99.90;;;;;;5032833;28;20208;-70
2022/09/01 04:10:27;;;;;;;4.55;1.73;;;15.10;99.90;;;;;;5035465;28;20720;-69
2022/09/01 04:12:58;;;;;;;3.30;2.08;;;15.10;99.90;;;;;;5037796;28;20236;-69
2022/09/01 04:15:24;;;;;;;4.60;1.85;;;15.10;99.90;;;;;;5031950;28;20318;-68
2022/09/01 04:18:18;;;;;;;4.80;2.33;;;15.10;99.90;;;;;;5039877;28;20208;-69
2022/09/01 04:20:47;;;;;;;8.27;2.70;;;15.10;99.90;;;;;;5035133;28;20212;-68
2022/09/01 04:23:34;;;;;;;5.10;2.63;;;15.10;99.90;;;;;;5034291;28;20216;-69
2022/09/01 04:26:08;;;;;;;5.07;2.63;;;15.10;99.90;;;;;;5033270;28;20342;-68
2022/09/01 04:28:44;;;;;;;3.55;1.95;;;15.00;99.90;;;;;;5040275;28;20203;-69
2022/09/01 04:31:17;;;;;;;5.90;2.10;;;14.90;99.90;;;;;;5035475;28;20225;-69
2022/09/01 04:33:45;;;;;;;3.42;2.05;;;14.90;99.90;;;;;;5036901;28;20565;-69
2022/09/01 04:36:24;;;;;;;3.85;2.28;;;15.00;99.90;;;;;;5034981;28;20191;-69
2022/09/01 04:38:56;;;;;;;6.13;1.60;;;14.90;99.90;;;;;;5036943;28;20235;-69
2022/09/01 04:41:29;;;;;;;3.50;1.75;;;14.90;99.90;;;;;;5037935;28;20215;-69
2022/09/01 04:43:55;;;;;;;4.40;1.30;;;14.90;99.90;;;;;;5035599;28;20211;-69
2022/09/01 04:46:23;;;;;;;4.55;1.50;;;15.80;99.90;;;;;;5038177;28;20220;-69
2022/09/01 04:48:51;;;;;;;4.00;1.35;;;17.60;99.90;;;;;;5034607;28;20216;-69
2022/09/01 04:51:19;;;;;;;2.60;1.20;;;19.40;99.90;;;;;;5035384;28;20188;-69
2022/09/01 04:53:47;;;;;;;2.58;1.20;;;20.60;99.90;;;;;;5038930;28;20333;-69
2022/09/01 04:56:14;;;;;;;2.70;1.70;;;21.50;99.90;;;;;;5038185;28;20675;-70
2022/09/01 04:58:40;;;;;;;3.72;1.50;;;22.20;99.90;;;;;;5041912;28;20261;-69
2022/09/01 05:01:18;;;;;;;2.30;1.63;;;22.10;99.90;;;;;;5038558;28;20228;-70
2022/09/01 05:03:44;;;;;;;6.18;1.60;;;22.70;99.90;;;;;;5039284;28;20249;-69
2022/09/01 05:06:16;;;;;;;3.53;1.35;;;23.20;99.90;;;;;;5036799;28;20208;-69
2022/09/01 05:08:44;;;;;;;2.67;1.55;;;22.70;99.90;;;;;;5042876;28;20200;-69
2022/09/01 05:11:10;;;;;;;2.67;1.40;;;21.00;99.90;;;;;;5037167;28;20746;-68
2022/09/01 05:13:39;;;;;;;2.22;1.27;;;19.60;99.90;;;;;;5040201;28;20204;-68
2022/09/01 05:16:11;;;;;;;1.48;0.98;;;18.90;99.90;;;;;;5040473;28;20680;-68
2022/09/01 05:18:39;;;;;;;1.90;1.50;;;18.50;99.90;;;;;;5039642;28;20212;-68
2022/09/01 05:21:10;;;;;;;3.75;1.38;;;18.10;99.90;;;;;;5037322;28;20203;-70
2022/09/01 05:23:39;;;;;;;1.65;1.20;;;18.80;99.90;;;;;;5043137;28;20203;-70
2022/09/01 05:26:15;;;;;;;2.58;1.35;;;21.70;99.90;;;;;;5038281;28;20250;-70
2022/09/01 05:28:42;;;;;;;4.05;1.52;;;23.50;99.90;;;;;;5037607;28;20689;-69
2022/09/01 05:31:08;;;;;;;2.72;1.48;;;24.20;99.90;;;;;;5035692;28;20702;-71
2022/09/01 05:33:35;;;;;;;3.35;1.50;;;25.40;99.90;;;;;;5040901;28;20209;-71
2022/09/01 05:36:03;;;;;;;2.88;1.35;;;25.90;99.90;;;;;;5036492;28;20180;-71
2022/09/01 05:38:30;;;;;;;1.95;1.40;;;26.10;99.90;;;;;;5042050;28;20642;-70
2022/09/01 05:41:07;;;;;;;1.90;1.23;;;26.90;99.90;;;;;;5040483;28;20631;-71
2022/09/01 05:43:33;;;;;;;2.97;1.60;;;27.10;99.90;;;;;;5040838;28;20230;-71
2022/09/01 05:45:59;;;;;;;2.42;1.80;;;27.50;99.90;;;;;;5039840;28;20216;-70
2022/09/01 05:48:30;;;;;;;2.58;1.60;;;27.20;99.90;;;;;;5041101;28;20203;-71
2022/09/01 05:50:58;;;;;;;2.03;1.50;;;28.30;99.90;;;;;;5038607;28;20203;-70
2022/09/01 05:53:25;;;;;;;3.45;1.80;;;28.20;99.90;;;;;;5039699;28;20207;-71
2022/09/01 05:55:56;;;;;;;2.47;1.30;;;28.30;99.90;;;;;;5039188;28;20571;-71
2022/09/01 05:58:24;;;;;;;5.75;1.42;;;29.20;99.90;;;;;;5036929;28;20219;-71
2022/09/01 06:00:52;;;;;;;3.28;1.25;;;29.30;99.90;;;;;;5039139;28;20804;-71
2022/09/01 06:03:19;;;;;;;3.35;1.50;;;29.30;99.90;;;;;;5040541;28;20635;-71
2022/09/01 06:05:47;;;;;;;1.70;1.42;;;30.30;99.20;;;;;;5039602;28;20180;-70
2022/09/01 06:08:13;;;;;;;5.47;1.80;;;30.20;98.60;;;;;;5037441;28;20208;-71
2022/09/01 06:10:40;;;;;;;2.53;1.70;;;30.20;97.50;;;;;;5036116;28;20215;-71
2022/09/01 06:13:07;;;;;;;2.45;1.50;;;30.20;97.30;;;;;;5040902;28;20298;-72
2022/09/01 06:15:37;;;;;;;2.58;1.40;;;30.60;96.00;;;;;;5042660;28;20211;-72
2022/09/01 06:18:08;;;;;;;3.70;1.55;;;29.30;96.30;;;;;;5040592;28;20274;-72
2022/09/01 06:20:38;;;;;;;7.07;2.35;;;29.10;96.70;;;;;;5038637;28;20346;-71
2022/09/01 06:23:03;;;;;;;2.78;1.38;;;29.00;97.00;;;;;;5041893;28;20294;-72
2022/09/01 06:25:29;;;;;;;3.53;2.00;;;29.40;96.50;;;;;;5038518;28;20295;-71
2022/09/01 06:27:56;;;;;;;2.42;1.70;;;29.20;96.50;;;;;;5041216;28;20207;-73
2022/09/01 06:30:25;;;;;;;3.92;2.25;;;29.60;96.10;;;;;;5040665;28;20170;-73
2022/09/01 06:32:52;;;;;;;1.60;1.50;;;30.00;95.50;;;;;;5042741;28;20175;-72
2022/09/01 06:35:19;;;;;;;2.53;1.30;;;30.40;94.60;;;;;;5035681;28;20210;-72
2022/09/01 06:37:45;;;;;;;3.63;1.98;;;30.50;94.00;;;;;;5037824;28;20207;-73
2022/09/01 06:40:16;;;;;;;4.70;1.90;;;30.80;93.30;;;;;;5049331;28;20234;-72
2022/09/01 06:42:50;;;;;;;3.25;1.70;;;31.00;93.20;;;;;;5051353;28;20222;-73
2022/09/01 06:45:21;;;;;;;3.15;2.10;;;31.30;92.00;;;;;;5070549;28;20182;-73
2022/09/01 06:47:49;;;;;;;6.75;3.65;;;31.70;91.50;;;;;;5037121;28;21022;-72
2022/09/01 06:50:18;;;;;;;2.50;1.60;;;31.90;90.80;;;;;;5037902;28;20325;-73
2022/09/01 06:52:44;;;;;;;3.70;1.48;;;31.40;90.70;;;;;;5032977;28;20216;-73
2022/09/01 06:55:12;;;;;;;1.83;1.48;;;31.20;91.00;;;;;;5038523;28;20230;-71
2022/09/01 06:57:39;;;;;;;2.15;1.38;;;30.90;89.40;;;;;;5039894;28;20633;-71
2022/09/01 07:00:27;;;;;;;3.63;1.00;;;30.00;91.00;;;;;;5036184;28;20168;-72
2022/09/01 07:02:55;;;;;;;1.85;1.60;;;30.00;91.40;;;;;;5037303;28;20211;-71
2022/09/01 07:05:22;;;;;;;4.68;1.73;;;29.70;91.70;;;;;;5040285;28;20206;-72
2022/09/01 07:07:50;;;;;;;2.10;1.40;;;30.30;91.00;;;;;;5037551;28;20241;-71
2022/09/01 07:10:19;;;;;;;2.80;1.27;;;29.60;90.90;;;;;;5036407;28;20203;-72
2022/09/01 07:12:45;;;;;;;2.13;1.60;;;30.50;91.40;;;;;;5039018;28;20305;-72
2022/09/01 07:15:14;;;;;;;3.45;1.45;;;30.60;90.60;;;;;;5036864;28;20930;-72
2022/09/01 07:17:41;;;;;;;2.22;1.40;;;30.20;90.70;;;;;;5040115;28;20648;-71
2022/09/01 07:20:10;;;;;;;3.05;1.25;;;30.40;90.80;;;;;;5034262;28;20698;-72
2022/09/01 07:22:35;;;;;;;5.22;1.80;;;30.30;91.30;;;;;;5041496;28;20588;-72
2022/09/01 07:25:01;;;;;;;1.98;1.20;;;30.70;90.40;;;;;;5038917;28;20211;-72
2022/09/01 07:27:27;;;;;;;2.22;1.20;;;30.70;90.50;;;;;;5038529;28;20282;-71
2022/09/01 07:29:55;;;;;;;2.25;1.20;;;31.10;90.00;;;;;;5034686;28;20661;-71
2022/09/01 07:32:20;;;;;;;2.97;1.35;;;31.30;89.80;;;;;;5035678;28;20677;-71
2022/09/01 07:34:46;;;;;;;2.10;1.08;;;31.60;89.00;;;;;;5040190;28;20218;-72
2022/09/01 07:37:12;;;;;;;2.08;1.10;;;32.10;87.80;;;;;;5035127;28;21826;-72
2022/09/01 07:39:43;;;;;;;2.85;1.42;;;31.70;86.80;;;;;;5040858;28;20211;-71
2022/09/01 07:42:10;;;;;;;1.73;1.27;;;31.20;86.90;;;;;;5037322;28;20739;-72
2022/09/01 07:44:37;;;;;;;3.17;1.15;;;31.00;88.60;;;;;;5039398;28;20207;-71
2022/09/01 07:47:08;;;;;;;3.17;1.10;;;31.10;88.10;;;;;;5035221;28;20212;-71
2022/09/01 07:49:36;;;;;;;1.73;1.25;;;31.00;88.40;;;;;;5035930;28;20670;-72
2022/09/01 07:52:03;;;;;;;1.65;1.00;;;31.70;88.00;;;;;;5037879;28;20310;-70
2022/09/01 07:54:29;;;;;;;1.25;1.15;;;32.40;86.00;;;;;;5035054;28;20181;-71
2022/09/01 07:56:54;;;;;;;1.80;1.20;;;31.30;86.30;;;;;;5041132;28;20182;-70
2022/09/01 07:59:20;;;;;;;1.80;1.23;;;31.50;86.70;;;;;;5036445;28;20208;-71
2022/09/01 08:01:46;;;;;;;1.92;1.50;;;31.80;85.40;;;;;;5038098;28;20731;-70
2022/09/01 08:04:12;;;;;;;2.88;1.30;;;31.30;85.30;;;;;;5038372;28;20288;-71
2022/09/01 08:06:38;;;;;;;3.05;1.70;;;31.60;86.10;;;;;;5037826;28;20379;-68
2022/09/01 08:09:06;;;;;;;12.68;8.18;;;31.70;84.50;;;;;;5035587;28;20188;-70
2022/09/01 08:11:32;;;;;;;0.82;0.80;;;31.60;84.10;;;;;;5035527;28;20292;-71
2022/09/01 08:13:59;;;;;;;1.33;0.80;;;30.90;83.70;;;;;;5023341;22;20235;-71
2022/09/01 08:16:26;;;;;;;4.55;1.60;;;30.60;84.20;;;;;;5007478;28;20346;-73
2022/09/01 08:18:52;;;;;;;12.95;7.90;;;29.90;85.80;;;;;;5007155;28;20224;-70
2022/09/01 08:21:20;;;;;;;1.85;1.20;;;30.10;88.00;;;;;;5007570;28;20169;-70
2022/09/01 08:23:46;;;;;;;2.65;1.30;;;30.20;87.30;;;;;;4999055;28;20305;-69
2022/09/01 08:26:14;;;;;;;2.17;1.00;;;30.70;86.20;;;;;;4996843;28;20342;-71
2022/09/01 08:28:40;;;;;;;1.27;0.85;;;30.60;86.50;;;;;;4978985;28;20202;-70
2022/09/01 08:31:09;;;;;;;7.97;3.03;;;30.70;86.20;;;;;;4970249;28;20233;-71
2022/09/01 08:33:39;;;;;;;1.17;1.02;;;30.20;86.30;;;;;;4970844;28;20217;-71
2022/09/01 08:36:08;;;;;;;3.65;2.40;;;29.90;84.80;;;;;;4971265;28;20211;-71
2022/09/01 08:38:33;;;;;;;5.50;3.17;;;29.20;87.00;;;;;;4967385;28;20213;-71
2022/09/01 08:41:02;;;;;;;2.03;1.25;;;29.70;86.80;;;;;;4970608;28;20598;-71
2022/09/01 08:43:59;;;;;;;4.93;1.75;;;29.50;86.00;;;;;;4969498;28;20211;-71
2022/09/01 08:46:29;;;;;;;3.05;1.65;;;30.20;86.90;;;;;;4969785;28;20292;-71
2022/09/01 08:48:59;;;;;;;3.10;1.33;;;29.30;85.40;;;;;;4970751;28;20221;-71
2022/09/01 08:51:48;;;;;;;3.50;1.23;;;28.70;87.30;;;;;;4970541;28;20179;-72
2022/09/01 08:54:52;;;;;;;3.42;1.25;;;28.90;89.70;;;;;;4969858;28;20317;-70
2022/09/01 08:57:28;;;;;;;1.98;1.13;;;28.90;87.40;;;;;;4969974;28;20185;-72
2022/09/01 08:59:53;;;;;;;1.17;0.75;;;29.30;86.60;;;;;;4967813;28;20244;-69
2022/09/01 09:02:58;;;;;;;2.08;1.20;;;27.80;83.90;;;;;;4970978;28;20206;-72
2022/09/01 09:05:32;;;;;;;1.92;0.88;;;26.80;88.00;;;;;;4967933;28;20268;-72
2022/09/01 09:08:32;;;;;;;1.58;0.90;;;26.30;91.10;;;;;;4969341;28;20223;-73
2022/09/01 09:11:07;;;;;;;3.42;2.10;;;25.90;91.10;;;;;;4969422;28;20217;-73
2022/09/01 09:14:06;;;;;;;2.17;0.95;;;24.80;91.80;;;;;;4967028;28;20214;-70
2022/09/01 09:16:39;;;;;;;4.40;1.33;;;24.90;93.70;;;;;;4969000;28;20207;-72
2022/09/01 09:19:18;;;;;;;2.97;0.98;;;24.50;96.60;;;;;;4970030;28;20214;-72
2022/09/01 09:21:47;;;;;;;2.10;1.00;;;24.60;95.50;;;;;;4967632;28;20214;-71
2022/09/01 09:24:18;;;;;;;4.15;0.73;;;24.40;95.90;;;;;;4970970;28;20229;-73
2022/09/01 09:26:51;;;;;;;1.35;0.80;;;24.10;96.10;;;;;;4984948;28;20202;-73
2022/09/01 09:29:19;;;;;;;2.33;0.80;;;24.60;95.80;;;;;;4972189;28;20202;-72
2022/09/01 09:31:47;;;;;;;0.80;0.65;;;25.20;95.50;;;;;;4971039;28;20559;-72
2022/09/01 09:34:23;;;;;;;1.70;0.80;;;25.10;96.10;;;;;;4970855;28;20592;-75
2022/09/01 09:36:49;;;;;;;1.75;0.80;;;25.50;96.00;;;;;;4997607;28;20210;-73
2022/09/01 09:39:17;;;;;;;2.05;0.90;;;24.80;97.60;;;;;;4970388;28;20182;-73
2022/09/01 09:42:00;;;;;;;1.77;0.60;;;25.00;97.80;;;;;;4971162;28;20170;-72
2022/09/01 09:44:29;;;;;;;0.85;0.60;;;25.30;97.10;;;;;;4971669;28;20208;-73
2022/09/01 09:46:56;;;;;;;0.82;0.65;;;24.70;96.60;;;;;;4973862;28;20250;-72
2022/09/01 09:49:28;;;;;;;4.15;0.75;;;25.10;97.30;;;;;;4972102;28;20210;-72
2022/09/01 09:52:15;;;;;;;0.85;0.75;;;25.50;97.20;;;;;;4973464;28;20246;-71
2022/09/01 09:55:06;;;;;;;1.58;0.70;;;25.60;97.00;;;;;;4969910;28;20222;-71
2022/09/01 09:57:37;;;;;;;4.10;0.98;;;25.10;96.90;;;;;;4973789;28;20543;-72
2022/09/01 10:00:07;;;;;;;9.45;0.95;;;25.10;96.70;;;;;;4973105;28;20558;-72
2022/09/01 10:02:37;;;;;;;3.88;0.75;;;25.30;96.80;;;;;;4971708;28;20210;-72
2022/09/01 10:05:38;;;;;;;0.52;0.52;;;25.40;95.70;;;;;;4969565;28;20241;-71
2022/09/01 10:08:06;;;;;;;2.13;0.98;;;24.00;96.70;;;;;;4971345;28;20233;-73
2022/09/01 10:10:48;;;;;;;1.35;0.80;;;24.90;96.60;;;;;;4973222;28;20233;-72
2022/09/01 10:13:22;;;;;;;1.85;1.33;;;24.70;95.10;;;;;;4972487;28;20217;-72
2022/09/01 10:15:50;;;;;;;3.78;1.08;;;24.60;95.80;;;;;;4973537;28;20210;-74
2022/09/01 10:18:25;;;;;;;2.13;1.25;;;24.50;96.20;;;;;;4972755;28;20704;-72
2022/09/01 10:21:02;;;;;;;1.48;0.52;;;23.70;94.60;;;;;;4973983;28;20182;-73
2022/09/01 10:23:35;;;;;;;1.52;1.17;;;23.50;95.40;;;;;;4969247;28;20240;-71
2022/09/01 10:26:15;;;;;;;2.05;1.35;;;23.40;96.80;;;;;;4973577;28;20471;-71
2022/09/01 10:28:51;;;;;;;0.90;0.90;;;23.60;97.00;;;;;;4969009;28;20703;-72
2022/09/01 10:31:18;;;;;;;4.43;1.35;;;24.10;97.60;;;;;;4971667;28;20237;-71
2022/09/01 10:33:45;;;;;;;1.85;1.05;;;24.60;97.00;;;;;;4973121;28;20222;-71
2022/09/01 10:36:12;;;;;;;2.83;0.80;;;24.90;96.50;;;;;;4972708;28;20253;-72
2022/09/01 10:38:38;;;;;;;1.38;0.60;;;25.10;94.40;;;;;;4973212;28;20218;-71
2022/09/01 10:41:06;;;;;;;2.08;1.13;;;24.70;94.00;;;;;;4970627;28;20284;-72
2022/09/01 10:43:33;;;;;;;2.92;0.82;;;25.30;94.40;;;;;;4972420;28;20234;-72
2022/09/01 10:45:59;;;;;;;1.38;0.68;;;25.20;93.50;;;;;;4972904;28;20221;-70
2022/09/01 10:48:32;;;;;;;2.20;0.75;;;25.10;94.20;;;;;;4973736;28;20175;-73
2022/09/01 10:51:13;;;;;;;2.58;2.15;;;24.60;94.80;;;;;;4972157;28;20589;-73
2022/09/01 10:53:39;;;;;;;4.40;1.10;;;24.70;95.00;;;;;;4972773;28;20309;-70
2022/09/01 10:56:26;;;;;;;1.98;1.00;;;24.90;95.10;;;;;;4970725;28;20216;-70
2022/09/01 10:59:10;;;;;;;1.80;1.00;;;25.30;94.90;;;;;;4968284;28;20237;-70
2022/09/01 11:01:42;;;;;;;3.72;1.10;;;25.50;93.80;;;;;;4972066;28;20205;-71
2022/09/01 11:04:10;;;;;;;1.98;1.30;;;25.40;94.60;;;;;;4971049;28;20606;-70
2022/09/01 11:06:41;;;;;;;1.65;0.60;;;25.30;94.10;;;;;;4972814;28;20289;-71
2022/09/01 11:09:32;;;;;;;1.42;0.73;;;25.20;93.80;;;;;;4972620;28;20220;-71
2022/09/01 11:12:23;;;;;;;3.78;1.98;;;25.00;93.70;;;;;;4972158;28;20201;-71
2022/09/01 11:15:14;;;;;;;3.53;1.80;;;24.40;94.40;;;;;;4970322;28;20218;-72
2022/09/01 11:17:49;;;;;;;3.13;2.17;;;24.10;94.80;;;;;;4969768;28;20209;-70
2022/09/01 11:20:23;;;;;;;5.05;2.10;;;24.10;94.60;;;;;;4971599;28;20676;-74
2022/09/01 11:23:01;;;;;;;2.40;0.90;;;23.70;94.70;;;;;;4972660;28;20213;-71
2022/09/01 11:25:37;;;;;;;2.05;1.25;;;23.60;95.40;;;;;;4970339;28;20202;-71
2022/09/01 11:28:05;;;;;;;2.15;1.20;;;24.00;95.60;;;;;;4969576;28;20226;-72
2022/09/01 11:30:51;;;;;;;2.00;0.90;;;24.00;95.30;;;;;;4967804;28;20178;-71
2022/09/01 11:33:38;;;;;;;1.45;0.85;;;23.80;94.40;;;;;;5002798;28;20194;-72
2022/09/01 11:36:25;;;;;;;2.30;0.73;;;23.60;95.10;;;;;;4972358;28;20167;-72
2022/09/01 11:38:57;;;;;;;1.48;0.90;;;23.40;95.00;;;;;;4969531;28;20292;-74
2022/09/01 11:41:32;;;;;;;3.20;0.60;;;23.40;95.10;;;;;;4968027;28;20672;-74
2022/09/01 11:44:00;;;;;;;2.90;0.50;;;23.30;94.70;;;;;;4971397;28;20224;-74
2022/09/01 11:46:33;;;;;;;1.75;0.88;;;23.50;94.70;;;;;;4971677;28;20700;-73
2022/09/01 11:49:05;;;;;;;0.98;0.75;;;23.10;94.80;;;;;;4968881;28;20246;-73
2022/09/01 11:51:44;;;;;;;1.77;0.70;;;22.80;95.40;;;;;;4970393;28;20206;-72
2022/09/01 11:54:10;;;;;;;3.80;0.70;;;22.90;95.50;;;;;;4968314;28;20210;-72
2022/09/01 11:56:36;;;;;;;1.95;0.68;;;23.20;95.60;;;;;;4967936;28;20214;-72
2022/09/01 11:59:01;;;;;;;1.05;0.82;;;23.30;94.40;;;;;;4970840;28;20220;-72
2022/09/01 12:01:34;;;;;;;2.80;0.68;;;23.40;94.20;;;;;;4981634;28;20212;-72
2022/09/01 12:04:29;;;;;;;1.13;0.60;;;23.30;93.90;;;;;;4984258;28;20214;-71
2022/09/01 12:06:59;;;;;;;0.88;0.70;;;23.20;94.40;;;;;;4967872;28;20226;-69
2022/09/01 12:09:41;;;;;;;2.90;1.45;;;23.10;94.00;;;;;;4971785;28;20186;-71
2022/09/01 12:12:37;;;;;;;1.58;0.80;;;22.90;94.50;;;;;;4969241;28;20182;-71
2022/09/01 12:15:22;;;;;;;1.15;0.85;;;22.90;94.50;;;;;;4989253;28;20229;-71
2022/09/01 12:17:48;;;;;;;3.25;2.67;;;23.10;94.50;;;;;;4968866;28;20301;-71
2022/09/01 12:20:37;;;;;;;4.13;2.05;;;23.20;95.20;;;;;;4971201;28;20234;-71
2022/09/01 12:23:13;;;;;;;3.47;1.50;;;22.80;96.00;;;;;;4969831;28;20210;-71
2022/09/01 12:25:39;;;;;;;1.92;1.05;;;22.70;97.10;;;;;;4982194;28;20201;-69
2022/09/01 12:28:05;;;;;;;1.95;1.00;;;22.70;97.40;;;;;;4983622;28;20222;-71
2022/09/01 12:30:38;;;;;;;1.50;0.95;;;22.60;97.80;;;;;;4969967;28;20706;-71
2022/09/01 12:33:06;;;;;;;1.65;0.93;;;22.50;98.00;;;;;;4979352;28;20660;-71
2022/09/01 12:35:31;;;;;;;1.70;0.80;;;22.60;98.30;;;;;;4971866;28;20210;-71
2022/09/01 12:38:19;;;;;;;1.45;0.80;;;22.70;98.30;;;;;;4971657;28;20711;-71
2022/09/01 12:40:51;;;;;;;1.17;0.68;;;22.80;98.30;;;;;;4970061;28;20213;-71
2022/09/01 12:43:35;;;;;;;2.25;1.35;;;22.80;97.50;;;;;;4971334;28;20213;-71
2022/09/01 12:46:03;;;;;;;0.88;0.57;;;22.80;97.70;;;;;;4971493;28;20224;-72
2022/09/01 12:48:46;;;;;;;2.05;0.52;;;22.60;97.90;;;;;;4968334;28;20253;-72
2022/09/01 12:51:19;;;;;;;1.45;0.70;;;22.40;98.30;;;;;;4971538;28;20315;-72
2022/09/01 12:53:59;;;;;;;2.00;1.10;;;22.60;98.80;;;;;;4967367;28;20579;-72
2022/09/01 12:56:33;;;;;;;1.75;1.60;;;22.60;98.60;;;;;;4971625;28;20202;-72
2022/09/01 12:59:12;;;;;;;1.15;0.77;;;22.60;98.20;;;;;;4968967;28;20214;-72
2022/09/01 13:01:40;;;;;;;1.75;0.85;;;22.50;98.40;;;;;;5002137;28;20678;-71
2022/09/01 13:04:29;;;;;;;2.45;0.82;;;22.50;98.70;;;;;;4969713;28;20249;-72
2022/09/01 13:07:00;;;;;;;2.10;1.05;;;22.60;98.20;;;;;;4959351;28;20740;-72
2022/09/01 13:09:26;;;;;;;0.70;0.60;;;22.70;97.50;;;;;;4971134;28;20193;-71
2022/09/01 13:11:51;;;;;;;3.08;0.82;;;22.80;97.80;;;;;;4971756;28;20630;-72